Weather at Belle Vue Airfield

Public forecast

Using degrees Celsius for public forecast. Weather courtesy of forecast.io.

Closest aviation weather report (METAR) to Belle Vue Airfield

Closest report is Exeter International Airport, 29.7 nm (55.0 km) ESE. Retrieved 2021/10/25 07:20 UTC (23 minutes ago):

EGTE 250720Z 13003KT 9999 VCSH FEW020 11/10 Q1014

Closest aviation forecast (TAF) to Belle Vue Airfield

Forecast is more than 12 hours old.

Closest forecast is Exeter International Airport, 29.7 nm (55.0 km) ESE. Retrieved 2012/04/19 12:15 UTC (10 years ago):

TAF TAF EGTE 191401Z 1912/1924 31016KT 9999 SCT030 SCT035 PROB40 TEMPO 1915/1918 7000 SHRA BKN014